Pasadena 2N

39° 08' 31"N, 76° 30' 27"W, Elevation 43 ft.
Eastern Time

Hourly observations for the last 72 hours

Date Time Temperature (°F) Humi-
dity

(%)
Wind
(mph)
Pressure Rain (in) Sun
(W/m2)
ET
(in)
Air Dew 6 Hour 1 Hr 3 Hr 6 Hr Day
Alt
(in)
Sea
Level

(mb)
Max Min
20 18:00 31.6 29.3 91 NNE 0 G 1 30.26 1024.9 0.00 0 0.006
20 17:00 32.2 29.9 91 NNE 0 G 1 30.29 1025.8 0.00 0 0.006
20 16:00 32.4 29.8 90 Calm 30.32 1026.8 0.00 0 0.006
20 15:00 31.8 28.9 89 Calm 30.34 1027.6 0.00 7 0.006
20 14:00 31.4 28.5 89 NE 0 G 5 30.37 1028.6 0.00 11 0.006
20 13:00 31.2 28.3 32.5 28.5 89 ESE 0 G 8 30.41 1029.7 0.00 21 0.006
20 12:00 30.0 27.4 90 ENE 2 G 5 30.48 1032.1 0.00 19 0.006
20 11:00 29.8 27.0 89 ENE 2 G 8 30.49 1032.4 0.00 9 0.006
20 10:00 29.3 26.5 89 E 0 G 5 30.51 1033.4 0.00 9 0.006
20 09:00 28.8 26.0 89 E 0 G 3 30.53 1034.0 0.00 7 0.006
20 08:00 28.6 25.2 87 Calm 30.56 1034.8 0.00 7 0.006
20 07:00 32.5 19.8 32.8 30.7 59 SE 0 G 1 30.54 1034.2 0.00 0 0.006
20 06:00 32.7 19.1 57 ENE 0 G 1 30.54 1034.2 0.00 0 0.005
20 05:00 32.7 17.9 54 E 0 G 2 30.54 1034.1 0.00 0 0.004
20 04:00 32.2 20.6 62 ENE 0 G 2 30.54 1034.1 0.00 0 0.003
20 03:00 31.3 22.7 70 Calm 30.56 1034.9 0.00 0 0.002
20 02:00 30.8 23.2 73 Calm 30.60 1036.1 0.00 0 0.001
20 01:00 30.8 22.2 33.1 30.8 70 Calm 30.60 1036.2 0.00 0 0.000
20 00:00 30.9 19.4 62 Calm 30.60 1036.2 0.00 0 0.051
19 23:00 31.9 18.8 58 Calm 30.60 1036.3 0.00 0 0.050
19 22:00 33.0 16.4 50 Calm 30.59 1035.8 0.00 0 0.049
19 21:00 32.3 19.6 59 Calm 30.59 1036.1 0.00 0 0.048
19 20:00 31.7 21.3 65 Calm 30.60 1036.3 0.00 0 0.047
19 19:00 32.6 19.9 40.5 32.6 59 Calm 30.60 1036.2 0.00 0 0.046
19 18:00 36.0 14.6 41 Calm 30.59 1035.9 0.00 0 0.045
19 17:00 38.6 13.9 36 NNW 0 G 3 30.57 1035.4 0.00 46 0.043
19 16:00 40.4 13.6 33 N 2 G 5 30.55 1034.6 0.00 111 0.039
19 15:00 39.9 13.1 33 NNE 1 G 9 30.57 1035.1 0.00 230 0.034
19 14:00 39.3 13.3 34 NW 3 G 9 30.58 1035.6 0.00 278 0.027
19 13:00 39.4 14.7 39.7 27.9 36 NNW 0 G 4 30.60 1036.2 0.00 469 0.018
19 12:00 38.3 14.3 37 WNW 0 G 9 30.61 1036.8 0.00 594 0.010
19 11:00 35.1 13.8 41 NNW 1 G 8 30.63 1037.3 0.00 418 0.008
19 10:00 32.5 13.0 44 W 1 G 12 30.63 1037.2 0.00 35 0.007
19 09:00 30.6 15.1 52 W 0 G 10 30.62 1036.9 0.00 30 0.006
19 08:00 28.7 17.3 62 WNW 0 G 4 30.60 1036.4 0.00 28 0.006
19 07:00 28.0 17.0 33.0 27.9 63 WNW 1 G 8 30.57 1035.2 0.00 5 0.006
19 06:00 28.5 18.6 66 WNW 0 G 5 30.55 1034.5 0.00 0 0.005
19 05:00 29.1 19.2 66 NW 0 G 4 30.51 1033.3 0.00 0 0.004
19 04:00 29.8 19.8 66 W 0 G 3 30.49 1032.5 0.00 0 0.003
19 03:00 30.7 21.0 67 W 0 G 1 30.47 1031.9 0.00 0 0.002
19 02:00 31.9 20.4 62 NNW 0 G 6 30.46 1031.4 0.00 0 0.001
19 01:00 32.9 20.9 40.1 32.8 61 WNW 5 G 15 30.42 1030.2 0.00 0 0.000
19 00:00 33.8 21.8 61 NNW 0 G 13 30.40 1029.5 0.33 0 0.053
18 23:00 34.4 22.0 60 WNW 2 G 13 30.37 1028.5 0.33 0 0.052
18 22:00 35.7 23.2 60 W 1 G 8 30.34 1027.6 0.33 0 0.051
18 21:00 37.3 23.9 58 NW 7 G 15 30.29 1025.8 0.33 0 0.049
18 20:00 38.9 25.4 58 W 2 G 12 30.27 1025.0 0.33 0 0.048
18 19:00 40.0 26.0 49.2 40.0 57 WNW 2 G 11 30.24 1024.2 0.33 0 0.046
18 18:00 40.9 26.4 56 WNW 3 G 16 30.19 1022.3 0.33 0 0.044
18 17:00 43.1 28.5 56 WNW 5 G 17 30.13 1020.3 0.33 25 0.042
18 16:00 44.9 28.3 52 W 2 G 18 30.07 1018.3 0.33 134 0.037
18 15:00 45.2 29.1 53 WNW 8 G 19 30.04 1017.4 0.33 181 0.031
18 14:00 47.0 31.7 55 WNW 7 G 19 30.01 1016.2 0.33 480 0.021
18 13:00 49.2 33.7 49.4 36.1 55 WNW 8 G 26 29.97 1015.1 0.33 751 0.010
18 12:00 47.0 35.5 64 WNW 3 G 14 29.96 1014.6 0.33 285 0.005
18 11:00 44.9 38.1 77 W 3 G 11 29.94 1013.8 0.33 200 0.002
18 10:00 42.2 38.3 86 W 3 G 13 29.90 1012.6 0.33 90 0.001
18 09:00 39.7 38.1 94 W 0 G 4 29.88 1011.9 0.33 125 0.000
18 08:00 36.8 35.2 94 W 0 G 1 29.84 1010.6 0.33 49 0.000
18 07:00 36.6 34.8 37.4 35.5 93 Calm 29.82 1009.7 0.01 0.05 0.27 0.33 0 0.000
18 06:00 37.3 35.5 93 Calm 29.78 1008.4 0.32 0 0.000
18 05:00 37.1 35.3 93 W 0 G 1 29.79 1008.7 0.04 0.32 0 0.000
18 04:00 37.2 35.4 93 SE 2 G 4 29.73 1006.9 0.10 0.22 0.28 0 0.000
18 03:00 37.0 35.2 93 S 0 G 3 29.78 1008.6 0.07 0.18 0 0.000
18 02:00 36.5 34.7 93 SSE 3 G 8 29.79 1008.8 0.05 0.11 0 0.000
18 01:00 35.5 33.7 35.5 33.7 93 WNW 1 G 3 29.85 1010.9 0.06 0.17 0.31 0.06 0 0.000
18 00:00 34.7 32.6 92 NW 4 G 12 29.89 1012.1 0.05 0.26 0 0.022
17 23:00 34.2 31.8 91 Calm 29.92 1013.2 0.06 0.21 0 0.022
17 22:00 34.3 31.9 91 SW 0 G 1 29.96 1014.6 0.05 0.14 0.15 0 0.022
17 21:00 34.1 31.5 90 Calm 29.95 1014.3 0.03 0.10 0 0.022
17 20:00 33.8 30.9 89 ESE 1 G 4 29.94 1013.9 0.06 0.07 0 0.022
17 19:00 33.9 30.4 37.8 33.8 87 SSE 2 G 5 29.96 1014.7 0.01 0.01 0.01 0.01 0 0.022

Data generated by WxSolution Version 1.9.1.6, Build 2018.07.01.